Terminal Aerodrome Forecast
Issued by NWS

Home | Current Version | Previous Version | Text Only | Print | Product List | Glossary On
Versions: 1 2 3 4 5 6 7 8 9 10 11 12 13 14 15 16 17 18 19 20 21 22 23
000
FTUS41 KPHI 232005 AAA
TAFPNE
TAF AMD
KPNE 232005Z 2320/2418 14008KT P6SM BKN030
     FM232200 11006KT P6SM VCTS OVC050CB
      TEMPO 2400/2403 4SM TSRA BKN025CB
     FM240300 10006KT 4SM -SHRA OVC025
     FM240900 34005KT 5SM -SHRA OVC015
     FM241500 35008KT P6SM OVC025=

USA.gov is the U.S. government's official web portal to all federal, state and local government web resources and services.